Aktualne dane pomiarowe

Uwaga, wersja testowa! Automatyczne pobieranie danych za pomocą narzędzi lub skryptów to umożliwiających jest zabronione.

Dane meteo z obszaru Polski uzyskane na podstawie depesz SYNOP pobieranych co godzinę z NWS. Najedź myszką na symbol przedstawiony w tabeli, aby uzyskać informacje co do jego znaczenia. Prosimy pamiętać, że to testowa wersja strony, która jeszcze nie jest ukończona. Stworzono również jest krótki FAQ dotyczący korzystania z tej podstrony Anomalie temperatury w chwili obecnej odniesione są do okresu referencyjnego 1951-2016. Okres ten będzie później zmieniony na 1981-2010. Kliknij ikonę aby pobrać plik CSV. Kliknij ikonę aby wygenerować mapę synoptyczną dla danego terminu.

Wybierz Datę:    

        

Kielce-Suków (12570)

Dane terminowe dla wybranej stacji. Kliknij datę, aby otrzymać dane z tego terminu dla wszystkich stacji.

TemperaturaZachmurzenieWiatrCiśnienieOpadyPogoda
 Data t td wb tx tn tg rh  Nt Nl Cl Cm Ch ws wd g1 g2 wx mslp ppp ch 24h 12h t ww ww w1 w2  
2019-07-04 23:00:00 9.9 6.1 7.6--- 7730.0wx-wx1wx--11018.2 986.6 -0.8---------
2019-07-04 22:00:00 10.6 5.8 7.7--- 7240.0wx-wx0---01018.5 987.0 -0.6---------
2019-07-04 21:00:00 11.7 5.6 8.2--- 6630.0wx-wx0---01018.7 987.3 -0.3---------
2019-07-04 20:00:00 14.3 5.6 9.4--- 5625.0wx-wx0---01018.5 987.4 -0.3---------
2019-07-04 19:00:00 16.5 5.1 10.3--- 4726.0wx-wx1wx--11018.5 987.6 -0.5---------
2019-07-04 18:00:00 19.4 4.3 11.4 22.5 15.8- 3750.0wx-wx2wx-1021018.2 987.6 -0.8- 0.012------
2019-07-04 17:00:00 21.0 4.1 12.1--- 3340.0wx-wxwx3wx--31018.1 987.7 -1.1---------
2019-07-04 16:00:00 21.9 4.4 12.6--- 3235.0wx-wxwx3wx---1018.4 988.1 -1.2---------
2019-07-04 15:00:00 21.2 3.8 12.0--- 3240.0wx-wxwx4wx-1041018.8 988.4 -1.4---------
2019-07-04 14:00:00 22.0 4.5 12.7--- 3235.0wx-wx2wx7921019.1 988.8 -1.3---------
2019-07-04 13:00:00 21.4 5.3 12.7--- 3535.0wxwxwxwx3wx-1031019.7 989.3 -1.2---------
2019-07-04 12:00:00 19.9 4.0 11.5--- 3530.0wxwxwxwx4wx---1020.4 989.8 -0.8---------
2019-07-04 11:00:00 19.9 4.0 11.5--- 3545.0wxwxwxwx3wx8831020.7 990.1 -0.6---------
2019-07-04 10:00:00 19.8 4.3 11.6--- 3635.0wxwxwxwx3wx8831021.1 990.5 -0.3---------
2019-07-04 09:00:00 17.7 4.3 10.6--- 4150.0wxwxwxwx3wx8831021.4 990.6 -0.2---------
2019-07-04 08:00:00 18.5 3.5 10.7--- 3730.0wxwxwxwx3wx--31021.5 990.7 0.1---------
2019-07-04 07:00:00 17.9 6.4 11.5--- 4728.0wxwxwx3wx---1021.6 990.8 0.1---------
2019-07-04 06:00:00 15.8 7.5 11.0 18.5 7.2 7 5825.0wxwxwxwx1wx--11021.8 990.8 0.4- 0.012----- 12.0
2019-07-04 05:00:00 13.6 7.4 9.9--- 6630.0wx-wx1wx--11021.9 990.6 0.2---------
2019-07-04 04:00:00 9.5 6.9 7.8--- 8429.0wx-wx0---01022.4 990.7 0.5---------
2019-07-04 03:00:00 8.1 6.4 7.0--- 8930.0wx-wx0---01022.3 990.4 0.2---------
2019-07-04 02:00:00 8.6 6.2 7.0--- 8535.0wx-wx0---01022.2 990.4 0.4---------
2019-07-04 01:00:00 9.1 7.4 7.9--- 8945.0wx-wx1wx--11022.0 990.2 0.1---------
2019-07-04 00:00:00 8.8 6.9 7.5--- 8840.0wx-wx0---01022.0 990.2 0.4- 0.06------
2019-07-03 23:00:00 7.2 4.3 5.4--- 8235.0wx-wx1wx--11022.0 990.0 0.4---------
2019-07-03 22:00:00 9.4 5.4 7.0--- 7628.0wx-0---01021.8 990.1 1.1---------
2019-07-03 21:00:00 10.7 4.6 7.2--- 6630.0wx-wx0---01021.4 989.8 1.1---------
2019-07-03 20:00:00 12.9 4.1 8.1--- 5540.0wx-wx0---01020.9 989.6 0.9---------
2019-07-03 19:00:00 15.7 3.5 9.3--- 4450.0wx-wxwx2wx--21020.0 989.0 0.5---------
2019-07-03 18:00:00 18.5 2.7 10.4 21.7 16.1- 3545.0wx-wxwx4wx-1341019.4 988.7 0.3- 0.012------
2019-07-03 17:00:00 19.4 2.7 10.8--- 3345.0wx-wx4wx--41019.3 988.7 0.0---------
2019-07-03 16:00:00 20.1 2.4 11.0--- 3135.0wx-wx5wx-951019.0 988.5 -0.2---------
2019-07-03 15:00:00 20.5 2.3 11.2--- 3040.0wx-wx6wx-1361018.9 988.4 -0.4---------
2019-07-03 14:00:00 20.6 3.3 11.6--- 3235.0wxwxwxwx5wx--51019.2 988.7 -0.2---------
2019-07-03 13:00:00 21.4 4.9 12.5--- 3450.0wxwxwxwx4wx91341019.1 988.7 -0.3---------
2019-07-03 12:00:00 20.1 4.9 11.9--- 3735.0wxwxwx4wx10--1019.3 988.8 -0.1---------
2019-07-03 11:00:00 18.9 5.3 11.5--- 4135.0wxwxwx6wx-1061019.6 988.9 0.2---------
2019-07-03 10:00:00 19.4 5.1 11.7--- 3935.0wxwxwx5wx-1051019.6 989.0 0.4---------
2019-07-03 09:00:00 18.6 5.8 11.6--- 4330.0wxwxwx4wx9941019.6 988.9 0.4---------
2019-07-03 08:00:00 18.2 6.7 11.8--- 4730.0wxwxwx4wx--41019.4 988.7 0.4---------
2019-07-03 07:00:00 17.2 6.7 11.3--- 5035.0wxwxwxwx5wx-851019.4 988.6 0.6---------
2019-07-03 06:00:00 16.5 8.2 11.6 21.8 9.5 8 5830.0wxwxwxwx3wx--31019.4 988.5 0.6- 0.012----- 10.6
2019-07-03 05:00:00 15.2 8.2 11.0--- 6335.0wxwxwxwx2wx--21019.3 988.3 0.6---------
2019-07-03 04:00:00 13.6 9.0 10.7--- 7435.0wxwxwxwxwx1wx--11019.2 988.0 0.5---------
2019-07-03 03:00:00 12.0 9.2 10.2--- 8345.0wxwxwxwx1wx--11019.3 987.9 0.7---------
2019-07-03 02:00:00 11.1 8.5 9.4--- 8440.0wxwxwxwx1wx--11019.2 987.7 0.8---------
2019-07-03 01:00:00 10.4 8.0 8.8--- 8540.0wxwxwxwx1wx--11019.0 987.5 0.9---------
2019-07-03 00:00:00 10.1 7.2 8.2--- 8240.0wx-wx0---01018.8 987.2 0.8- 0.06------
12.3 ms

 

Print Friendly, PDF & Email